createdAt,value
2023-05-22T00:00:17.540Z,16.27
2023-05-22T00:02:46.930Z,16.95
2023-05-22T00:05:16.968Z,15.40
2023-05-22T00:07:47.815Z,14.88
2023-05-22T00:10:17.017Z,14.70
2023-05-22T00:12:46.457Z,15.10
2023-05-22T00:15:15.578Z,13.32
2023-05-22T00:17:45.263Z,14.75
2023-05-22T00:20:14.711Z,14.50
2023-05-22T00:22:44.239Z,14.50
2023-05-22T00:25:16.449Z,14.50
2023-05-22T00:27:45.568Z,14.38
2023-05-22T00:30:15.447Z,14.38
2023-05-22T00:32:44.456Z,13.43
2023-05-22T00:35:13.998Z,15.05
2023-05-22T00:37:43.039Z,13.80
2023-05-22T00:40:16.654Z,13.75
2023-05-22T00:42:45.910Z,15.48
2023-05-22T00:45:15.816Z,14.27
2023-05-22T00:47:44.956Z,13.98
2023-05-22T00:50:14.492Z,14.00
2023-05-22T00:52:46.774Z,14.70
2023-05-22T00:55:17.920Z,13.43
2023-05-22T00:57:47.537Z,13.15
2023-05-22T01:00:18.206Z,14.43
2023-05-22T01:02:47.490Z,13.52
2023-05-22T01:05:19.063Z,14.10
2023-05-22T01:07:48.674Z,13.88
2023-05-22T01:10:19.523Z,14.25
2023-05-22T01:12:59.310Z,12.88
2023-05-22T01:15:37.018Z,12.95
2023-05-22T01:18:21.103Z,12.60
2023-05-22T01:20:59.086Z,13.07
2023-05-22T01:24:02.325Z,11.70
2023-05-22T01:26:58.763Z,12.43
2023-05-22T01:29:43.198Z,14.02
2023-05-22T01:32:17.504Z,11.38
2023-05-22T01:34:48.806Z,11.63
2023-05-22T01:37:19.539Z,11.70
2023-05-22T01:39:49.172Z,11.82
2023-05-22T01:42:18.546Z,11.23
2023-05-22T01:44:49.122Z,11.10
2023-05-22T01:47:19.882Z,10.38
2023-05-22T01:49:49.081Z,11.15
2023-05-22T01:52:25.493Z,9.88
2023-05-22T01:54:59.520Z,10.30
2023-05-22T01:57:32.128Z,10.10
2023-05-22T02:00:10.701Z,9.55
2023-05-22T02:02:46.991Z,10.05
2023-05-22T02:05:21.186Z,10.32
2023-05-22T02:07:50.334Z,9.45
2023-05-22T02:10:21.703Z,9.90
2023-05-22T02:12:51.099Z,8.68
2023-05-22T02:15:21.268Z,9.60
2023-05-22T02:17:54.108Z,9.13
2023-05-22T02:20:23.331Z,9.35
2023-05-22T02:22:52.335Z,9.55
2023-05-22T02:25:21.719Z,9.27
2023-05-22T02:27:50.801Z,8.55
2023-05-22T02:30:19.944Z,9.73
2023-05-22T02:32:50.796Z,9.40
2023-05-22T02:35:19.931Z,9.55
2023-05-22T02:37:48.990Z,10.32
2023-05-22T02:40:18.106Z,8.65
2023-05-22T02:42:47.180Z,8.75
2023-05-22T02:45:16.318Z,8.38
2023-05-22T02:47:45.469Z,9.25
2023-05-22T02:50:16.297Z,9.73
2023-05-22T02:52:46.195Z,8.80
2023-05-22T02:55:15.295Z,8.80
2023-05-22T02:57:46.629Z,9.27
2023-05-22T03:00:16.197Z,8.60
2023-05-22T03:02:45.246Z,8.73
2023-05-22T03:05:18.442Z,8.65
2023-05-22T03:07:48.763Z,7.93
2023-05-22T03:10:18.625Z,8.40
2023-05-22T03:12:47.776Z,8.20
2023-05-22T03:15:17.114Z,9.00
2023-05-22T03:17:46.390Z,8.52
2023-05-22T03:20:17.733Z,9.07
2023-05-22T03:22:49.679Z,9.27
2023-05-22T03:25:18.825Z,9.63
2023-05-22T03:27:47.874Z,8.90
2023-05-22T03:30:17.619Z,8.80
2023-05-22T03:32:47.137Z,9.07
2023-05-22T03:35:20.610Z,9.23
2023-05-22T03:37:49.631Z,8.48
2023-05-22T03:40:18.793Z,8.00
2023-05-22T03:42:47.857Z,9.02
2023-05-22T03:45:17.032Z,8.55
2023-05-22T03:47:46.500Z,6.22
2023-05-22T03:50:17.357Z,6.00
2023-05-22T03:52:46.486Z,5.90
2023-05-22T03:55:15.520Z,5.57
2023-05-22T03:57:44.575Z,5.18
2023-05-22T04:00:14.870Z,5.18
2023-05-22T04:02:45.776Z,5.00
2023-05-22T04:05:16.890Z,4.68
2023-05-22T04:07:46.112Z,5.03
2023-05-22T04:10:15.229Z,5.10
2023-05-22T04:12:44.257Z,5.03
2023-05-22T04:15:13.325Z,5.18
2023-05-22T04:17:42.614Z,4.80
2023-05-22T04:20:12.385Z,5.65
2023-05-22T04:22:43.148Z,5.32
2023-05-22T04:25:12.406Z,4.80
2023-05-22T04:27:41.470Z,5.38
2023-05-22T04:30:11.413Z,5.60
2023-05-22T04:32:41.685Z,5.78
2023-05-22T04:35:11.167Z,5.47
2023-05-22T04:37:46.412Z,5.90
2023-05-22T04:40:16.330Z,6.53
2023-05-22T04:42:45.480Z,5.75
2023-05-22T04:45:14.852Z,6.25
2023-05-22T04:47:43.926Z,6.43
2023-05-22T04:50:15.201Z,6.40
2023-05-22T04:52:45.956Z,6.00
2023-05-22T04:55:15.350Z,6.55
2023-05-22T04:57:48.093Z,6.68
2023-05-22T05:00:18.074Z,6.85
2023-05-22T05:02:47.336Z,5.78
2023-05-22T05:05:16.812Z,6.72
2023-05-22T05:07:50.031Z,6.47
2023-05-22T05:10:19.511Z,7.43
2023-05-22T05:12:48.705Z,9.70
2023-05-22T05:15:17.934Z,9.50
2023-05-22T05:17:47.177Z,10.73
2023-05-22T05:20:16.262Z,9.88
2023-05-22T05:22:47.295Z,10.75
2023-05-22T05:25:16.442Z,10.80
2023-05-22T05:27:45.509Z,12.00
2023-05-22T05:30:14.968Z,13.05
2023-05-22T05:32:44.037Z,11.68
2023-05-22T05:35:13.173Z,13.40
2023-05-22T05:37:42.683Z,14.07
2023-05-22T05:40:14.490Z,15.05
2023-05-22T05:42:43.560Z,14.73
2023-05-22T05:45:14.362Z,13.82
2023-05-22T05:47:43.376Z,13.68
2023-05-22T05:50:15.696Z,14.88
2023-05-22T05:52:44.939Z,13.90
2023-05-22T05:55:15.741Z,14.10
2023-05-22T05:57:44.865Z,12.88
2023-05-22T06:00:15.076Z,12.40
2023-05-22T06:02:44.642Z,12.68
2023-05-22T06:05:14.399Z,13.35
2023-05-22T06:07:43.445Z,13.98
2023-05-22T06:10:14.606Z,14.25
2023-05-22T06:12:43.909Z,14.38
2023-05-22T06:15:14.511Z,14.23
2023-05-22T06:17:43.813Z,13.68
2023-05-22T06:20:15.218Z,14.30
2023-05-22T06:22:44.309Z,14.18
2023-05-22T06:25:15.005Z,14.13
2023-05-22T06:27:44.110Z,14.23
2023-05-22T06:30:16.821Z,15.38
2023-05-22T06:32:49.487Z,13.20
2023-05-22T06:35:19.249Z,14.50
2023-05-22T06:37:48.320Z,14.40
2023-05-22T06:40:19.206Z,14.85
2023-05-22T06:42:48.274Z,14.32
2023-05-22T06:45:18.760Z,13.20
2023-05-22T06:47:47.864Z,13.98
2023-05-22T06:50:17.834Z,13.80
2023-05-22T06:52:46.997Z,13.55
2023-05-22T06:55:17.861Z,15.15
2023-05-22T06:57:46.864Z,14.10
2023-05-22T07:00:18.664Z,13.35
2023-05-22T07:02:49.048Z,13.68
2023-05-22T07:05:18.445Z,12.98
2023-05-22T07:07:47.661Z,14.73
2023-05-22T07:10:18.370Z,14.32
2023-05-22T07:12:47.408Z,15.68
2023-05-22T07:15:16.531Z,14.18
2023-05-22T07:17:45.772Z,15.25
2023-05-22T07:20:16.816Z,15.70
2023-05-22T07:22:45.848Z,14.93
2023-05-22T07:25:14.908Z,16.15
2023-05-22T07:27:45.591Z,16.17
2023-05-22T07:30:15.300Z,16.38
2023-05-22T07:32:44.371Z,16.40
2023-05-22T07:35:13.534Z,16.45
2023-05-22T07:37:42.626Z,17.83
2023-05-22T07:40:12.607Z,16.58
2023-05-22T07:42:42.551Z,16.30
2023-05-22T07:45:13.679Z,15.45
2023-05-22T07:47:42.729Z,16.58
2023-05-22T07:50:12.052Z,16.75
2023-05-22T07:52:41.145Z,17.10
2023-05-22T07:55:11.086Z,17.95
2023-05-22T07:57:40.686Z,18.08
2023-05-22T08:00:14.521Z,16.83
2023-05-22T08:02:45.447Z,17.17
2023-05-22T08:05:14.607Z,17.80
2023-05-22T08:07:43.906Z,16.75
2023-05-22T08:10:17.395Z,15.68
2023-05-22T08:12:46.474Z,16.98
2023-05-22T08:15:15.690Z,16.33
2023-05-22T08:17:46.459Z,16.25
2023-05-22T08:20:15.850Z,17.95
2023-05-22T08:22:44.896Z,16.85
2023-05-22T08:25:13.945Z,16.05
2023-05-22T08:27:43.033Z,17.48
2023-05-22T08:30:12.610Z,16.88
2023-05-22T08:32:42.069Z,17.50
2023-05-22T08:35:13.365Z,17.02
2023-05-22T08:37:42.533Z,16.27
2023-05-22T08:40:14.166Z,17.10
2023-05-22T08:42:43.740Z,17.85
2023-05-22T08:45:13.258Z,17.30
2023-05-22T08:47:45.189Z,17.88
2023-05-22T08:50:17.480Z,17.65
2023-05-22T08:52:52.096Z,18.00
2023-05-22T08:55:21.681Z,18.05
2023-05-22T08:57:52.752Z,19.00
2023-05-22T09:00:22.780Z,17.70
2023-05-22T09:02:53.461Z,18.60
2023-05-22T09:05:27.462Z,18.98
2023-05-22T09:08:02.789Z,18.48
2023-05-22T09:10:38.399Z,17.80
2023-05-22T09:13:12.303Z,18.00
2023-05-22T09:15:41.826Z,17.55
2023-05-22T09:18:10.974Z,17.50
2023-05-22T09:20:42.457Z,16.77
2023-05-22T09:23:26.457Z,17.40
2023-05-22T09:25:57.460Z,17.90
2023-05-22T09:28:27.028Z,17.38
2023-05-22T09:30:56.757Z,17.88
2023-05-22T09:33:26.048Z,17.63
2023-05-22T09:35:57.004Z,18.30
2023-05-22T09:38:29.627Z,17.63
2023-05-22T09:40:58.770Z,18.05
2023-05-22T09:43:27.793Z,19.27
2023-05-22T09:46:03.115Z,18.08
2023-05-22T09:48:37.101Z,18.65
2023-05-22T09:51:09.368Z,19.40
2023-05-22T09:53:42.325Z,17.67
2023-05-22T09:56:19.342Z,17.63
2023-05-22T09:58:56.912Z,17.85
2023-05-22T10:01:26.892Z,17.88
2023-05-22T10:03:58.429Z,18.40
2023-05-22T10:06:29.724Z,18.33
2023-05-22T10:09:05.936Z,18.38
2023-05-22T10:11:36.669Z,18.50
2023-05-22T10:14:06.323Z,18.13
2023-05-22T10:16:39.132Z,19.23
2023-05-22T10:19:09.439Z,18.58
2023-05-22T10:21:42.510Z,18.70
2023-05-22T10:24:12.270Z,19.42
2023-05-22T10:26:42.013Z,18.48
2023-05-22T10:29:13.841Z,19.35
2023-05-22T10:31:49.965Z,19.77
2023-05-22T10:37:16.865Z,18.83
2023-05-22T10:40:02.121Z,19.63
2023-05-22T10:42:32.748Z,18.83
2023-05-22T10:45:03.252Z,19.40
2023-05-22T10:47:34.989Z,19.98
2023-05-22T10:50:09.970Z,19.40
2023-05-22T10:52:41.174Z,18.90
2023-05-22T10:55:12.063Z,17.75
2023-05-22T10:57:41.526Z,19.65
2023-05-22T11:00:14.013Z,19.52
2023-05-22T11:02:44.542Z,20.67
2023-05-22T11:05:37.483Z,19.75
2023-05-22T11:08:41.067Z,19.65
2023-05-22T11:11:16.027Z,19.30
2023-05-22T11:13:45.271Z,20.20
2023-05-22T11:16:17.780Z,19.90
2023-05-22T11:18:47.285Z,19.10
2023-05-22T11:21:16.498Z,19.75
2023-05-22T11:23:48.407Z,19.85
2023-05-22T11:26:27.151Z,18.73
2023-05-22T11:28:57.704Z,19.75
2023-05-22T11:31:27.764Z,19.52
2023-05-22T11:33:56.954Z,19.27
2023-05-22T11:36:26.217Z,17.75
2023-05-22T11:39:01.008Z,19.55
2023-05-22T11:41:34.409Z,19.70
2023-05-22T11:44:03.572Z,18.63
2023-05-22T11:46:32.682Z,19.33
2023-05-22T11:49:02.050Z,20.10
2023-05-22T11:51:31.443Z,20.77
2023-05-22T11:54:02.737Z,19.85
2023-05-22T11:56:32.197Z,20.27
2023-05-22T11:59:01.294Z,20.00
2023-05-22T12:01:30.342Z,20.55
2023-05-22T12:03:59.597Z,21.52
2023-05-22T12:06:29.077Z,21.30
2023-05-22T12:08:58.210Z,19.92
2023-05-22T12:11:29.883Z,20.88
2023-05-22T12:14:05.894Z,21.60
2023-05-22T12:16:37.692Z,20.45
2023-05-22T12:19:07.815Z,21.08
2023-05-22T12:21:37.491Z,19.75
2023-05-22T12:24:07.514Z,20.33
2023-05-22T12:26:38.684Z,20.98
2023-05-22T12:29:07.813Z,20.75
2023-05-22T12:31:38.259Z,20.02
2023-05-22T12:34:09.291Z,20.80
2023-05-22T12:36:41.229Z,21.23
2023-05-22T12:39:11.329Z,20.42
2023-05-22T12:41:42.039Z,21.48
2023-05-22T12:44:11.222Z,20.75
2023-05-22T12:46:42.018Z,20.98
2023-05-22T12:49:11.647Z,20.20
2023-05-22T12:51:40.788Z,20.38
2023-05-22T12:54:10.083Z,18.65
2023-05-22T12:56:40.723Z,18.83
2023-05-22T12:59:09.730Z,19.83
2023-05-22T13:01:38.924Z,19.25
2023-05-22T13:04:08.045Z,17.95
2023-05-22T13:06:37.098Z,20.45
2023-05-22T13:09:06.192Z,19.30
2023-05-22T13:11:35.341Z,18.63
2023-05-22T13:14:06.070Z,19.95
2023-05-22T13:16:35.334Z,19.33
2023-05-22T13:19:04.552Z,20.65
2023-05-22T13:21:33.659Z,20.25
2023-05-22T13:24:02.662Z,20.58
2023-05-22T13:26:31.770Z,20.63
2023-05-22T13:29:00.809Z,20.60
2023-05-22T13:31:34.145Z,20.88
2023-05-22T13:34:03.352Z,22.17
2023-05-22T13:36:32.633Z,23.00
2023-05-22T13:39:01.862Z,21.88
2023-05-22T13:41:30.911Z,20.50
2023-05-22T13:44:00.039Z,21.02
2023-05-22T13:46:30.787Z,21.73
2023-05-22T13:49:00.570Z,21.27
2023-05-22T13:51:29.662Z,22.13
2023-05-22T13:53:58.756Z,22.65
2023-05-22T13:56:28.669Z,22.05
2023-05-22T13:58:57.975Z,21.50
2023-05-22T14:01:27.285Z,21.90
2023-05-22T14:03:57.980Z,21.95
2023-05-22T14:06:26.806Z,21.60
2023-05-22T14:08:55.871Z,21.30
2023-05-22T14:11:24.885Z,20.35
2023-05-22T14:13:55.065Z,20.73
2023-05-22T14:16:24.427Z,22.17
2023-05-22T14:18:53.493Z,21.13
2023-05-22T14:21:24.262Z,20.63
2023-05-22T14:23:53.591Z,20.33
2023-05-22T14:26:23.089Z,21.15
2023-05-22T14:28:52.418Z,20.67
2023-05-22T14:31:21.673Z,20.75
2023-05-22T14:33:50.973Z,21.70
2023-05-22T14:36:20.023Z,21.42
2023-05-22T14:38:50.775Z,22.55
2023-05-22T14:41:19.753Z,23.65
2023-05-22T14:43:48.855Z,23.83
2023-05-22T14:46:17.973Z,22.73
2023-05-22T14:48:46.986Z,21.58
2023-05-22T14:51:16.100Z,23.05
2023-05-22T14:53:45.166Z,21.73
2023-05-22T14:56:15.884Z,22.08
2023-05-22T14:58:44.921Z,21.10
2023-05-22T15:01:14.481Z,20.73
2023-05-22T15:03:44.261Z,21.90
2023-05-22T15:06:13.346Z,22.90
2023-05-22T15:08:42.627Z,21.73
2023-05-22T15:11:11.706Z,20.88
2023-05-22T15:13:42.414Z,21.08
2023-05-22T15:16:11.454Z,20.65
2023-05-22T15:18:40.459Z,20.75
2023-05-22T15:21:09.726Z,21.40
2023-05-22T15:23:38.738Z,21.20
2023-05-22T15:26:07.968Z,21.25
2023-05-22T15:28:37.169Z,22.40
2023-05-22T15:31:07.829Z,21.05
2023-05-22T15:33:36.870Z,22.00
2023-05-22T15:36:06.478Z,20.98
2023-05-22T15:38:35.621Z,21.75
2023-05-22T15:41:04.716Z,20.85
2023-05-22T15:43:33.798Z,20.60
2023-05-22T15:46:02.924Z,20.85
2023-05-22T15:48:33.671Z,20.33
2023-05-22T15:51:02.760Z,21.70
2023-05-22T15:53:31.788Z,22.05
2023-05-22T15:56:00.838Z,20.88
2023-05-22T15:58:30.993Z,20.23
2023-05-22T16:01:00.571Z,20.65
2023-05-22T16:03:29.702Z,20.40
2023-05-22T16:06:00.518Z,21.40
2023-05-22T16:08:29.663Z,20.85
2023-05-22T16:11:01.798Z,21.38
2023-05-22T16:13:30.973Z,20.05
2023-05-22T16:16:00.186Z,20.08
2023-05-22T16:18:29.283Z,20.98
2023-05-22T16:21:00.374Z,19.80
2023-05-22T16:23:29.458Z,21.15
2023-05-22T16:25:58.503Z,21.27
2023-05-22T16:28:27.620Z,21.30
2023-05-22T16:30:56.989Z,20.90
2023-05-22T16:33:26.065Z,20.80
2023-05-22T16:35:55.081Z,22.13
2023-05-22T16:38:25.766Z,21.05
2023-05-22T16:40:55.963Z,21.20
2023-05-22T16:43:25.054Z,20.13
2023-05-22T16:45:54.148Z,20.98
2023-05-22T16:48:23.262Z,21.13
2023-05-22T16:50:52.491Z,20.75
2023-05-22T16:53:21.624Z,20.15
2023-05-22T16:55:52.855Z,19.40
2023-05-22T16:58:22.654Z,19.90
2023-05-22T17:00:52.099Z,20.85
2023-05-22T17:03:21.506Z,20.27
2023-05-22T17:05:51.005Z,21.33
2023-05-22T17:08:20.055Z,20.08
2023-05-22T17:10:49.048Z,19.75
2023-05-22T17:13:21.914Z,19.30
2023-05-22T17:15:51.255Z,20.13
2023-05-22T17:18:21.729Z,18.42
2023-05-22T17:20:51.507Z,18.98
2023-05-22T17:23:20.737Z,18.90
2023-05-22T17:25:49.950Z,18.77
2023-05-22T17:28:20.745Z,19.85
2023-05-22T17:30:49.925Z,18.23
2023-05-22T17:33:19.135Z,18.35
2023-05-22T17:35:48.398Z,19.73
2023-05-22T17:38:17.615Z,19.13
2023-05-22T17:40:46.727Z,19.05
2023-05-22T17:43:17.441Z,18.17
2023-05-22T17:45:51.363Z,17.92
2023-05-22T17:48:24.358Z,17.13
2023-05-22T17:50:53.781Z,19.10
2023-05-22T17:53:23.182Z,18.50
2023-05-22T17:55:53.279Z,17.00
2023-05-22T17:58:22.641Z,18.00
2023-05-22T18:00:53.561Z,18.20
2023-05-22T18:03:22.730Z,18.40
2023-05-22T18:05:52.358Z,18.65
2023-05-22T18:08:22.255Z,17.95
2023-05-22T18:10:51.533Z,16.83
2023-05-22T18:13:20.625Z,15.45
2023-05-22T18:15:51.192Z,17.38
2023-05-22T18:18:23.247Z,16.67
2023-05-22T18:20:52.463Z,16.83
2023-05-22T18:23:21.707Z,17.75
2023-05-22T18:25:50.731Z,18.17
2023-05-22T18:28:21.783Z,15.75
2023-05-22T18:30:53.285Z,17.38
2023-05-22T18:33:28.408Z,15.85
2023-05-22T18:35:58.583Z,15.25
2023-05-22T18:38:28.210Z,17.13
2023-05-22T18:40:57.307Z,15.82
2023-05-22T18:43:28.991Z,14.77
2023-05-22T18:46:01.292Z,16.55
2023-05-22T18:48:32.368Z,15.82
2023-05-22T18:51:01.654Z,15.07
2023-05-22T18:53:32.310Z,16.50
2023-05-22T18:56:01.591Z,14.32
2023-05-22T18:58:30.673Z,14.45
2023-05-22T19:00:59.811Z,13.43
2023-05-22T19:03:30.525Z,14.15
2023-05-22T19:05:59.739Z,15.45
2023-05-22T19:08:28.903Z,17.30
2023-05-22T19:11:02.340Z,16.85
2023-05-22T19:13:31.355Z,13.45
2023-05-22T19:16:00.505Z,13.38
2023-05-22T19:18:31.434Z,15.18
2023-05-22T19:21:00.702Z,15.38
2023-05-22T19:23:33.873Z,16.52
2023-05-22T19:26:03.105Z,16.17
2023-05-22T19:28:33.344Z,14.80
2023-05-22T19:31:03.959Z,14.10
2023-05-22T19:33:34.683Z,14.98
2023-05-22T19:36:03.825Z,13.82
2023-05-22T19:38:33.494Z,16.85
2023-05-22T19:41:02.530Z,13.82
2023-05-22T19:43:32.173Z,12.88
2023-05-22T19:46:01.235Z,16.20
2023-05-22T19:48:32.445Z,18.75
2023-05-22T19:51:03.485Z,15.93
2023-05-22T19:53:33.501Z,14.73
2023-05-22T19:56:05.111Z,14.05
2023-05-22T19:58:34.359Z,16.15
2023-05-22T20:01:03.417Z,16.85
2023-05-22T20:03:32.661Z,17.52
2023-05-22T20:06:03.840Z,15.10
2023-05-22T20:08:32.914Z,18.17
2023-05-22T20:11:02.091Z,18.42
2023-05-22T20:13:31.223Z,16.60
2023-05-22T20:16:04.250Z,20.17
2023-05-22T20:18:33.703Z,18.75
2023-05-22T20:21:04.446Z,16.13
2023-05-22T20:23:33.505Z,15.60
2023-05-22T20:26:02.678Z,13.70
2023-05-22T20:28:31.778Z,16.95
2023-05-22T20:31:00.931Z,18.50
2023-05-22T20:33:29.968Z,18.85
2023-05-22T20:35:59.571Z,17.10
2023-05-22T20:38:30.479Z,16.42
2023-05-22T20:41:00.577Z,17.30
2023-05-22T20:43:31.672Z,19.20
2023-05-22T20:46:00.803Z,19.92
2023-05-22T20:48:30.005Z,16.40
2023-05-22T20:50:59.321Z,17.20
2023-05-22T20:53:29.988Z,17.13
2023-05-22T20:55:59.146Z,20.05
2023-05-22T20:58:28.663Z,17.90
2023-05-22T21:00:58.544Z,18.35
2023-05-22T21:03:27.802Z,16.17
2023-05-22T21:05:56.947Z,16.02
2023-05-22T21:08:25.983Z,18.58
2023-05-22T21:10:56.874Z,19.30
2023-05-22T21:13:25.926Z,17.63
2023-05-22T21:15:55.000Z,17.63
2023-05-22T21:18:25.094Z,20.30
2023-05-22T21:20:54.224Z,16.48
2023-05-22T21:23:24.662Z,18.60
2023-05-22T21:25:55.718Z,22.33
2023-05-22T21:28:25.254Z,19.67
2023-05-22T21:30:54.346Z,20.50
2023-05-22T21:33:23.434Z,16.48
2023-05-22T21:35:52.512Z,17.17
2023-05-22T21:38:21.712Z,18.10
2023-05-22T21:40:50.755Z,17.10
2023-05-22T21:43:21.525Z,18.48
2023-05-22T21:45:50.672Z,17.67
2023-05-22T21:48:19.786Z,19.13
2023-05-22T21:50:48.931Z,16.77
2023-05-22T21:53:17.969Z,17.13
2023-05-22T21:55:46.971Z,16.65
2023-05-22T21:58:16.738Z,14.55
2023-05-22T22:00:47.456Z,15.38
2023-05-22T22:03:16.644Z,20.48
2023-05-22T22:05:45.718Z,20.95
2023-05-22T22:08:14.894Z,18.08
2023-05-22T22:10:43.911Z,17.52
2023-05-22T22:13:13.040Z,18.05
2023-05-22T22:15:42.141Z,18.52
2023-05-22T22:18:15.746Z,15.30
2023-05-22T22:20:45.684Z,16.67
2023-05-22T22:23:14.952Z,14.77
2023-05-22T22:25:44.034Z,16.92
2023-05-22T22:28:13.571Z,15.48
2023-05-22T22:30:42.738Z,19.13
2023-05-22T22:33:13.795Z,14.75
2023-05-22T22:35:42.980Z,17.48
2023-05-22T22:38:12.130Z,15.30
2023-05-22T22:40:41.373Z,15.50
2023-05-22T22:43:11.132Z,16.48
2023-05-22T22:45:43.226Z,16.60
2023-05-22T22:48:14.131Z,13.32
2023-05-22T22:50:43.260Z,14.77
2023-05-22T22:53:12.296Z,15.30
2023-05-22T22:55:41.968Z,15.65
2023-05-22T22:58:11.341Z,16.13
2023-05-22T23:00:40.341Z,13.73
2023-05-22T23:03:09.359Z,15.43
2023-05-22T23:05:40.798Z,17.13
2023-05-22T23:08:10.045Z,17.42
2023-05-22T23:10:39.204Z,15.95
2023-05-22T23:13:08.360Z,16.13
2023-05-22T23:15:37.519Z,15.38
2023-05-22T23:18:06.773Z,14.45
2023-05-22T23:20:35.945Z,14.95
2023-05-22T23:23:06.603Z,13.45
2023-05-22T23:25:35.632Z,14.98
2023-05-22T23:28:04.731Z,12.70
2023-05-22T23:30:33.746Z,13.20
2023-05-22T23:33:03.478Z,13.48
2023-05-22T23:35:32.700Z,13.50
2023-05-22T23:38:02.420Z,15.45
2023-05-22T23:40:33.266Z,12.55
2023-05-22T23:43:02.334Z,14.25
2023-05-22T23:45:31.726Z,12.88
2023-05-22T23:48:00.867Z,13.70
2023-05-22T23:50:29.959Z,14.35
2023-05-22T23:52:59.083Z,15.13
2023-05-22T23:55:28.121Z,14.45
2023-05-22T23:57:58.799Z,13.68
